sensor_id;sensor_type;location;lat;lon;timestamp;temperature;humidity
8338;DHT22;4206;48.634;9.516;2023-06-26T00:00:03;18.50;99.90
8338;DHT22;4206;48.634;9.516;2023-06-26T00:02:31;18.20;99.90
8338;DHT22;4206;48.634;9.516;2023-06-26T00:05:00;17.90;99.90
8338;DHT22;4206;48.634;9.516;2023-06-26T00:07:30;18.20;99.90
8338;DHT22;4206;48.634;9.516;2023-06-26T00:09:57;18.30;99.90
8338;DHT22;4206;48.634;9.516;2023-06-26T00:12:25;18.10;99.90
8338;DHT22;4206;48.634;9.516;2023-06-26T00:14:52;18.20;99.90
8338;DHT22;4206;48.634;9.516;2023-06-26T00:17:20;18.10;99.90
8338;DHT22;4206;48.634;9.516;2023-06-26T00:19:47;18.20;99.90
8338;DHT22;4206;48.634;9.516;2023-06-26T00:22:14;17.90;99.90
8338;DHT22;4206;48.634;9.516;2023-06-26T00:24:41;17.90;99.90
8338;DHT22;4206;48.634;9.516;2023-06-26T00:27:08;17.90;99.90
8338;DHT22;4206;48.634;9.516;2023-06-26T00:29:35;17.80;99.90
8338;DHT22;4206;48.634;9.516;2023-06-26T00:32:02;17.80;99.90
8338;DHT22;4206;48.634;9.516;2023-06-26T00:34:29;17.70;99.90
8338;DHT22;4206;48.634;9.516;2023-06-26T00:36:56;17.60;99.90
8338;DHT22;4206;48.634;9.516;2023-06-26T00:39:23;17.50;99.90
8338;DHT22;4206;48.634;9.516;2023-06-26T00:41:52;17.50;99.90
8338;DHT22;4206;48.634;9.516;2023-06-26T00:44:21;17.40;99.90
8338;DHT22;4206;48.634;9.516;2023-06-26T00:46:48;17.40;99.90
8338;DHT22;4206;48.634;9.516;2023-06-26T00:49:15;17.30;99.90
8338;DHT22;4206;48.634;9.516;2023-06-26T00:51:43;17.20;99.90
8338;DHT22;4206;48.634;9.516;2023-06-26T00:54:10;17.20;99.90
8338;DHT22;4206;48.634;9.516;2023-06-26T00:56:37;17.10;99.90
8338;DHT22;4206;48.634;9.516;2023-06-26T00:59:05;17.00;99.90
8338;DHT22;4206;48.634;9.516;2023-06-26T01:01:32;17.00;99.90
8338;DHT22;4206;48.634;9.516;2023-06-26T01:03:59;16.90;99.90
8338;DHT22;4206;48.634;9.516;2023-06-26T01:06:28;16.90;99.90
8338;DHT22;4206;48.634;9.516;2023-06-26T01:08:59;16.90;99.90
8338;DHT22;4206;48.634;9.516;2023-06-26T01:11:26;16.90;99.90
8338;DHT22;4206;48.634;9.516;2023-06-26T01:13:53;16.80;99.90
8338;DHT22;4206;48.634;9.516;2023-06-26T01:16:23;16.80;99.90
8338;DHT22;4206;48.634;9.516;2023-06-26T01:18:51;16.70;99.90
8338;DHT22;4206;48.634;9.516;2023-06-26T01:21:18;16.60;99.90
8338;DHT22;4206;48.634;9.516;2023-06-26T01:24:05;16.60;99.90
8338;DHT22;4206;48.634;9.516;2023-06-26T01:26:36;16.60;99.90
8338;DHT22;4206;48.634;9.516;2023-06-26T01:29:06;16.50;99.90
8338;DHT22;4206;48.634;9.516;2023-06-26T01:31:34;16.40;99.90
8338;DHT22;4206;48.634;9.516;2023-06-26T01:34:02;16.30;99.90
8338;DHT22;4206;48.634;9.516;2023-06-26T01:36:29;16.30;99.90
8338;DHT22;4206;48.634;9.516;2023-06-26T01:38:56;16.30;99.90
8338;DHT22;4206;48.634;9.516;2023-06-26T01:41:22;16.30;99.90
8338;DHT22;4206;48.634;9.516;2023-06-26T01:49:07;16.20;99.90
8338;DHT22;4206;48.634;9.516;2023-06-26T01:51:41;16.30;99.90
8338;DHT22;4206;48.634;9.516;2023-06-26T01:54:13;16.30;99.90
8338;DHT22;4206;48.634;9.516;2023-06-26T01:56:45;16.30;99.90
8338;DHT22;4206;48.634;9.516;2023-06-26T01:59:15;16.20;99.90
8338;DHT22;4206;48.634;9.516;2023-06-26T02:01:43;16.20;99.90
8338;DHT22;4206;48.634;9.516;2023-06-26T02:04:10;16.20;99.90
8338;DHT22;4206;48.634;9.516;2023-06-26T02:06:37;16.10;99.90
8338;DHT22;4206;48.634;9.516;2023-06-26T02:09:04;16.10;99.90
8338;DHT22;4206;48.634;9.516;2023-06-26T02:11:31;16.00;99.90
8338;DHT22;4206;48.634;9.516;2023-06-26T02:13:57;16.00;99.90
8338;DHT22;4206;48.634;9.516;2023-06-26T02:16:24;16.00;99.90
8338;DHT22;4206;48.634;9.516;2023-06-26T02:18:51;16.00;99.90
8338;DHT22;4206;48.634;9.516;2023-06-26T02:21:18;15.90;99.90
8338;DHT22;4206;48.634;9.516;2023-06-26T02:23:45;15.90;99.90
8338;DHT22;4206;48.634;9.516;2023-06-26T02:26:12;15.80;99.90
8338;DHT22;4206;48.634;9.516;2023-06-26T02:28:39;15.80;99.90
8338;DHT22;4206;48.634;9.516;2023-06-26T02:31:05;15.80;99.90
8338;DHT22;4206;48.634;9.516;2023-06-26T02:33:32;15.80;99.90
8338;DHT22;4206;48.634;9.516;2023-06-26T02:35:59;15.70;99.90
8338;DHT22;4206;48.634;9.516;2023-06-26T02:38:26;15.70;99.90
8338;DHT22;4206;48.634;9.516;2023-06-26T02:40:53;15.60;99.90
8338;DHT22;4206;48.634;9.516;2023-06-26T02:43:20;15.60;99.90
8338;DHT22;4206;48.634;9.516;2023-06-26T02:45:46;15.50;99.90
8338;DHT22;4206;48.634;9.516;2023-06-26T02:48:13;15.50;99.90
8338;DHT22;4206;48.634;9.516;2023-06-26T02:50:40;15.50;99.90
8338;DHT22;4206;48.634;9.516;2023-06-26T02:53:07;15.40;99.90
8338;DHT22;4206;48.634;9.516;2023-06-26T02:55:34;15.40;99.90
8338;DHT22;4206;48.634;9.516;2023-06-26T02:58:01;15.40;99.90
8338;DHT22;4206;48.634;9.516;2023-06-26T03:00:28;15.50;99.90
8338;DHT22;4206;48.634;9.516;2023-06-26T03:02:57;15.40;99.90
8338;DHT22;4206;48.634;9.516;2023-06-26T03:05:24;15.40;99.90
8338;DHT22;4206;48.634;9.516;2023-06-26T03:07:51;15.40;99.90
8338;DHT22;4206;48.634;9.516;2023-06-26T03:10:17;15.30;99.90
8338;DHT22;4206;48.634;9.516;2023-06-26T03:12:44;15.30;99.90
8338;DHT22;4206;48.634;9.516;2023-06-26T03:15:11;15.20;99.90
8338;DHT22;4206;48.634;9.516;2023-06-26T03:17:38;15.20;99.90
8338;DHT22;4206;48.634;9.516;2023-06-26T03:20:06;15.20;99.90
8338;DHT22;4206;48.634;9.516;2023-06-26T03:22:34;15.20;99.90
8338;DHT22;4206;48.634;9.516;2023-06-26T03:25:02;15.10;99.90
8338;DHT22;4206;48.634;9.516;2023-06-26T03:27:29;15.10;99.90
8338;DHT22;4206;48.634;9.516;2023-06-26T03:29:55;15.10;99.90
8338;DHT22;4206;48.634;9.516;2023-06-26T03:32:22;15.10;99.90
8338;DHT22;4206;48.634;9.516;2023-06-26T03:34:49;15.10;99.90
8338;DHT22;4206;48.634;9.516;2023-06-26T03:37:16;15.10;99.90
8338;DHT22;4206;48.634;9.516;2023-06-26T03:39:43;15.10;99.90
8338;DHT22;4206;48.634;9.516;2023-06-26T03:42:10;15.10;99.90
8338;DHT22;4206;48.634;9.516;2023-06-26T03:44:37;15.10;99.90
8338;DHT22;4206;48.634;9.516;2023-06-26T03:47:04;15.00;99.90
8338;DHT22;4206;48.634;9.516;2023-06-26T03:49:31;15.00;99.90
8338;DHT22;4206;48.634;9.516;2023-06-26T03:51:58;15.00;99.90
8338;DHT22;4206;48.634;9.516;2023-06-26T03:54:25;15.00;99.90
8338;DHT22;4206;48.634;9.516;2023-06-26T03:56:52;14.90;99.90
8338;DHT22;4206;48.634;9.516;2023-06-26T03:59:19;14.90;99.90
8338;DHT22;4206;48.634;9.516;2023-06-26T04:01:46;14.90;99.90
8338;DHT22;4206;48.634;9.516;2023-06-26T04:04:13;15.00;99.90
8338;DHT22;4206;48.634;9.516;2023-06-26T04:06:40;15.00;99.90
8338;DHT22;4206;48.634;9.516;2023-06-26T04:09:07;15.00;99.90
8338;DHT22;4206;48.634;9.516;2023-06-26T04:11:33;15.10;99.90
8338;DHT22;4206;48.634;9.516;2023-06-26T04:14:00;15.10;99.90
8338;DHT22;4206;48.634;9.516;2023-06-26T04:16:28;15.20;99.90
8338;DHT22;4206;48.634;9.516;2023-06-26T04:18:55;15.20;99.90
8338;DHT22;4206;48.634;9.516;2023-06-26T04:21:23;15.30;99.90
8338;DHT22;4206;48.634;9.516;2023-06-26T04:23:51;15.40;99.90
8338;DHT22;4206;48.634;9.516;2023-06-26T04:26:18;15.40;99.90
8338;DHT22;4206;48.634;9.516;2023-06-26T04:28:45;15.40;99.90
8338;DHT22;4206;48.634;9.516;2023-06-26T04:31:12;15.50;99.90
8338;DHT22;4206;48.634;9.516;2023-06-26T04:33:39;15.60;99.90
8338;DHT22;4206;48.634;9.516;2023-06-26T04:36:09;15.70;99.90
8338;DHT22;4206;48.634;9.516;2023-06-26T04:38:36;15.70;99.90
8338;DHT22;4206;48.634;9.516;2023-06-26T04:41:03;15.90;99.90
8338;DHT22;4206;48.634;9.516;2023-06-26T04:43:29;16.00;99.90
8338;DHT22;4206;48.634;9.516;2023-06-26T04:45:57;16.10;99.90
8338;DHT22;4206;48.634;9.516;2023-06-26T04:48:24;16.30;99.90
8338;DHT22;4206;48.634;9.516;2023-06-26T04:50:50;16.30;99.90
8338;DHT22;4206;48.634;9.516;2023-06-26T04:53:22;16.40;99.90
8338;DHT22;4206;48.634;9.516;2023-06-26T04:55:50;16.60;99.90
8338;DHT22;4206;48.634;9.516;2023-06-26T04:58:18;16.70;99.90
8338;DHT22;4206;48.634;9.516;2023-06-26T05:00:45;16.80;99.90
8338;DHT22;4206;48.634;9.516;2023-06-26T05:03:13;16.80;99.90
8338;DHT22;4206;48.634;9.516;2023-06-26T05:05:40;17.00;99.90
8338;DHT22;4206;48.634;9.516;2023-06-26T05:08:17;17.10;99.90
8338;DHT22;4206;48.634;9.516;2023-06-26T05:10:45;17.20;99.90
8338;DHT22;4206;48.634;9.516;2023-06-26T05:13:12;17.40;99.90
8338;DHT22;4206;48.634;9.516;2023-06-26T05:15:41;17.50;99.90
8338;DHT22;4206;48.634;9.516;2023-06-26T05:18:08;17.70;99.90
8338;DHT22;4206;48.634;9.516;2023-06-26T05:20:35;17.90;99.90
8338;DHT22;4206;48.634;9.516;2023-06-26T05:23:03;18.10;99.90
8338;DHT22;4206;48.634;9.516;2023-06-26T05:25:31;18.30;99.90
8338;DHT22;4206;48.634;9.516;2023-06-26T05:27:59;18.40;99.90
8338;DHT22;4206;48.634;9.516;2023-06-26T05:30:27;18.70;99.90
8338;DHT22;4206;48.634;9.516;2023-06-26T05:32:54;18.90;99.90
8338;DHT22;4206;48.634;9.516;2023-06-26T05:35:22;19.10;99.90
8338;DHT22;4206;48.634;9.516;2023-06-26T05:37:50;19.40;99.90
8338;DHT22;4206;48.634;9.516;2023-06-26T05:40:18;19.70;99.90
8338;DHT22;4206;48.634;9.516;2023-06-26T05:42:46;20.00;99.90
8338;DHT22;4206;48.634;9.516;2023-06-26T05:45:13;20.20;99.90
8338;DHT22;4206;48.634;9.516;2023-06-26T05:47:40;20.40;99.90
8338;DHT22;4206;48.634;9.516;2023-06-26T05:50:09;20.50;99.90
8338;DHT22;4206;48.634;9.516;2023-06-26T05:52:37;20.60;99.90
8338;DHT22;4206;48.634;9.516;2023-06-26T05:55:06;20.80;99.90
8338;DHT22;4206;48.634;9.516;2023-06-26T05:57:34;21.00;99.90
8338;DHT22;4206;48.634;9.516;2023-06-26T06:00:02;21.20;99.90
8338;DHT22;4206;48.634;9.516;2023-06-26T06:02:32;21.40;99.90
8338;DHT22;4206;48.634;9.516;2023-06-26T06:04:59;21.40;99.90
8338;DHT22;4206;48.634;9.516;2023-06-26T06:07:26;21.50;99.90
8338;DHT22;4206;48.634;9.516;2023-06-26T06:09:53;21.60;99.90
8338;DHT22;4206;48.634;9.516;2023-06-26T06:12:20;21.70;99.90
8338;DHT22;4206;48.634;9.516;2023-06-26T06:14:47;21.70;99.90
8338;DHT22;4206;48.634;9.516;2023-06-26T06:17:14;21.70;99.90
8338;DHT22;4206;48.634;9.516;2023-06-26T06:19:41;21.80;99.90
8338;DHT22;4206;48.634;9.516;2023-06-26T06:22:08;21.90;99.90
8338;DHT22;4206;48.634;9.516;2023-06-26T06:24:35;22.00;99.90
8338;DHT22;4206;48.634;9.516;2023-06-26T06:27:02;21.90;99.90
8338;DHT22;4206;48.634;9.516;2023-06-26T06:29:29;22.20;99.90
8338;DHT22;4206;48.634;9.516;2023-06-26T06:31:56;22.20;99.90
8338;DHT22;4206;48.634;9.516;2023-06-26T06:34:23;22.30;99.90
8338;DHT22;4206;48.634;9.516;2023-06-26T06:36:50;22.40;99.90
8338;DHT22;4206;48.634;9.516;2023-06-26T06:39:17;22.70;99.90
8338;DHT22;4206;48.634;9.516;2023-06-26T06:41:44;22.80;99.90
8338;DHT22;4206;48.634;9.516;2023-06-26T06:44:11;23.10;99.90
8338;DHT22;4206;48.634;9.516;2023-06-26T06:46:38;23.10;99.90
8338;DHT22;4206;48.634;9.516;2023-06-26T06:49:05;23.50;99.90
8338;DHT22;4206;48.634;9.516;2023-06-26T06:51:32;23.70;99.90
8338;DHT22;4206;48.634;9.516;2023-06-26T06:53:59;23.80;99.90
8338;DHT22;4206;48.634;9.516;2023-06-26T06:56:25;24.10;99.90
8338;DHT22;4206;48.634;9.516;2023-06-26T06:58:52;24.30;99.90
8338;DHT22;4206;48.634;9.516;2023-06-26T07:01:19;24.50;99.90
8338;DHT22;4206;48.634;9.516;2023-06-26T07:03:46;24.20;99.90
8338;DHT22;4206;48.634;9.516;2023-06-26T07:06:13;25.00;99.90
8338;DHT22;4206;48.634;9.516;2023-06-26T07:08:40;25.20;99.90
8338;DHT22;4206;48.634;9.516;2023-06-26T07:11:07;25.50;99.90
8338;DHT22;4206;48.634;9.516;2023-06-26T07:13:34;25.40;99.90
8338;DHT22;4206;48.634;9.516;2023-06-26T07:16:01;25.30;99.90
8338;DHT22;4206;48.634;9.516;2023-06-26T07:18:28;25.50;99.90
8338;DHT22;4206;48.634;9.516;2023-06-26T07:20:55;25.80;99.90
8338;DHT22;4206;48.634;9.516;2023-06-26T07:23:22;26.40;99.90
8338;DHT22;4206;48.634;9.516;2023-06-26T07:25:49;26.40;99.90
8338;DHT22;4206;48.634;9.516;2023-06-26T07:28:15;26.40;99.90
8338;DHT22;4206;48.634;9.516;2023-06-26T07:30:42;26.90;99.90
8338;DHT22;4206;48.634;9.516;2023-06-26T07:33:10;27.00;99.90
8338;DHT22;4206;48.634;9.516;2023-06-26T07:35:37;27.30;99.90
8338;DHT22;4206;48.634;9.516;2023-06-26T07:38:04;27.40;99.90
8338;DHT22;4206;48.634;9.516;2023-06-26T07:40:31;27.40;99.90
8338;DHT22;4206;48.634;9.516;2023-06-26T07:42:58;27.60;99.90
8338;DHT22;4206;48.634;9.516;2023-06-26T07:45:25;28.00;99.90
8338;DHT22;4206;48.634;9.516;2023-06-26T07:47:53;28.30;99.90
8338;DHT22;4206;48.634;9.516;2023-06-26T07:50:20;28.50;99.90
8338;DHT22;4206;48.634;9.516;2023-06-26T07:52:49;28.10;99.90
8338;DHT22;4206;48.634;9.516;2023-06-26T07:55:16;28.80;99.90
8338;DHT22;4206;48.634;9.516;2023-06-26T07:57:43;29.40;99.90
8338;DHT22;4206;48.634;9.516;2023-06-26T08:00:12;29.30;99.90
8338;DHT22;4206;48.634;9.516;2023-06-26T08:02:39;29.30;99.90
8338;DHT22;4206;48.634;9.516;2023-06-26T08:05:07;29.40;99.90
8338;DHT22;4206;48.634;9.516;2023-06-26T08:07:34;29.60;99.90
8338;DHT22;4206;48.634;9.516;2023-06-26T08:10:01;29.80;99.90
8338;DHT22;4206;48.634;9.516;2023-06-26T08:12:28;30.00;99.40
8338;DHT22;4206;48.634;9.516;2023-06-26T08:15:04;30.30;98.80
8338;DHT22;4206;48.634;9.516;2023-06-26T08:17:43;30.40;96.70
8338;DHT22;4206;48.634;9.516;2023-06-26T08:20:12;30.50;97.10
8338;DHT22;4206;48.634;9.516;2023-06-26T08:22:39;30.70;97.50
8338;DHT22;4206;48.634;9.516;2023-06-26T08:25:07;31.00;95.70
8338;DHT22;4206;48.634;9.516;2023-06-26T08:27:33;31.20;94.90
8338;DHT22;4206;48.634;9.516;2023-06-26T08:30:01;31.60;95.30
8338;DHT22;4206;48.634;9.516;2023-06-26T08:32:28;31.70;95.50
8338;DHT22;4206;48.634;9.516;2023-06-26T08:34:55;31.90;95.10
8338;DHT22;4206;48.634;9.516;2023-06-26T08:37:21;32.10;93.40
8338;DHT22;4206;48.634;9.516;2023-06-26T08:39:48;32.40;93.40
8338;DHT22;4206;48.634;9.516;2023-06-26T08:42:16;32.70;93.30
8338;DHT22;4206;48.634;9.516;2023-06-26T08:44:43;32.70;92.20
8338;DHT22;4206;48.634;9.516;2023-06-26T08:47:27;33.00;92.00
8338;DHT22;4206;48.634;9.516;2023-06-26T08:50:12;33.30;90.90
8338;DHT22;4206;48.634;9.516;2023-06-26T08:52:49;33.50;91.30
8338;DHT22;4206;48.634;9.516;2023-06-26T08:55:20;33.60;91.60
8338;DHT22;4206;48.634;9.516;2023-06-26T08:57:51;33.80;88.20
8338;DHT22;4206;48.634;9.516;2023-06-26T09:00:20;34.20;90.10
8338;DHT22;4206;48.634;9.516;2023-06-26T09:02:47;34.50;89.30
8338;DHT22;4206;48.634;9.516;2023-06-26T09:05:14;34.40;86.60
8338;DHT22;4206;48.634;9.516;2023-06-26T09:07:41;35.00;86.20
8338;DHT22;4206;48.634;9.516;2023-06-26T09:10:09;36.30;83.90
8338;DHT22;4206;48.634;9.516;2023-06-26T09:12:37;37.00;82.20
8338;DHT22;4206;48.634;9.516;2023-06-26T09:15:05;37.00;79.70
8338;DHT22;4206;48.634;9.516;2023-06-26T09:17:39;34.70;80.90
8338;DHT22;4206;48.634;9.516;2023-06-26T09:20:08;35.30;83.70
8338;DHT22;4206;48.634;9.516;2023-06-26T09:22:38;36.20;81.10
8338;DHT22;4206;48.634;9.516;2023-06-26T09:25:06;36.90;78.70
8338;DHT22;4206;48.634;9.516;2023-06-26T09:27:34;36.90;77.70
8338;DHT22;4206;48.634;9.516;2023-06-26T09:30:03;37.30;78.20
8338;DHT22;4206;48.634;9.516;2023-06-26T09:32:30;37.60;76.20
8338;DHT22;4206;48.634;9.516;2023-06-26T09:34:57;37.70;78.20
8338;DHT22;4206;48.634;9.516;2023-06-26T09:37:27;38.10;75.50
8338;DHT22;4206;48.634;9.516;2023-06-26T09:39:53;39.40;71.70
8338;DHT22;4206;48.634;9.516;2023-06-26T09:42:21;39.00;69.50
8338;DHT22;4206;48.634;9.516;2023-06-26T09:44:49;39.50;70.30
8338;DHT22;4206;48.634;9.516;2023-06-26T09:47:16;39.30;72.20
8338;DHT22;4206;48.634;9.516;2023-06-26T09:49:45;39.70;72.20
8338;DHT22;4206;48.634;9.516;2023-06-26T09:52:16;39.60;69.60
8338;DHT22;4206;48.634;9.516;2023-06-26T09:54:43;39.50;68.20
8338;DHT22;4206;48.634;9.516;2023-06-26T09:57:15;40.60;67.40
8338;DHT22;4206;48.634;9.516;2023-06-26T09:59:42;41.50;66.80
8338;DHT22;4206;48.634;9.516;2023-06-26T10:02:12;41.60;66.10
8338;DHT22;4206;48.634;9.516;2023-06-26T10:04:39;40.90;64.10
8338;DHT22;4206;48.634;9.516;2023-06-26T10:07:11;39.70;63.20
8338;DHT22;4206;48.634;9.516;2023-06-26T10:09:41;37.50;66.20
8338;DHT22;4206;48.634;9.516;2023-06-26T10:12:15;36.00;67.90
8338;DHT22;4206;48.634;9.516;2023-06-26T10:14:45;34.80;74.50
8338;DHT22;4206;48.634;9.516;2023-06-26T10:17:17;34.00;75.80
8338;DHT22;4206;48.634;9.516;2023-06-26T10:19:45;34.40;74.20
8338;DHT22;4206;48.634;9.516;2023-06-26T10:22:15;36.10;73.70
8338;DHT22;4206;48.634;9.516;2023-06-26T10:24:43;36.50;73.90
8338;DHT22;4206;48.634;9.516;2023-06-26T10:29:44;36.40;73.10
8338;DHT22;4206;48.634;9.516;2023-06-26T10:32:13;35.90;72.70
8338;DHT22;4206;48.634;9.516;2023-06-26T10:34:40;35.30;73.40
8338;DHT22;4206;48.634;9.516;2023-06-26T10:37:07;34.30;74.30
8338;DHT22;4206;48.634;9.516;2023-06-26T10:39:51;33.50;77.10
8338;DHT22;4206;48.634;9.516;2023-06-26T10:42:19;33.10;76.70
8338;DHT22;4206;48.634;9.516;2023-06-26T10:44:48;32.80;78.40
8338;DHT22;4206;48.634;9.516;2023-06-26T10:47:31;32.50;78.40
8338;DHT22;4206;48.634;9.516;2023-06-26T10:53:08;33.20;76.70
8338;DHT22;4206;48.634;9.516;2023-06-26T10:55:36;32.90;76.20
8338;DHT22;4206;48.634;9.516;2023-06-26T10:58:04;32.70;78.10
8338;DHT22;4206;48.634;9.516;2023-06-26T11:00:31;32.50;80.50
8338;DHT22;4206;48.634;9.516;2023-06-26T11:02:59;32.20;80.00
8338;DHT22;4206;48.634;9.516;2023-06-26T11:05:29;31.80;79.10
8338;DHT22;4206;48.634;9.516;2023-06-26T11:08:11;31.70;82.40
8338;DHT22;4206;48.634;9.516;2023-06-26T11:10:52;31.50;82.80
8338;DHT22;4206;48.634;9.516;2023-06-26T11:13:21;31.00;83.90
8338;DHT22;4206;48.634;9.516;2023-06-26T11:15:50;30.70;81.90
8338;DHT22;4206;48.634;9.516;2023-06-26T11:18:17;30.40;82.50
8338;DHT22;4206;48.634;9.516;2023-06-26T11:20:44;30.30;82.50
8338;DHT22;4206;48.634;9.516;2023-06-26T11:23:11;30.20;84.10
8338;DHT22;4206;48.634;9.516;2023-06-26T11:25:38;30.00;84.00
8338;DHT22;4206;48.634;9.516;2023-06-26T11:28:05;30.00;85.20
8338;DHT22;4206;48.634;9.516;2023-06-26T11:30:36;29.80;85.90
8338;DHT22;4206;48.634;9.516;2023-06-26T11:33:06;29.80;86.20
8338;DHT22;4206;48.634;9.516;2023-06-26T11:35:34;29.70;86.20
8338;DHT22;4206;48.634;9.516;2023-06-26T11:38:02;29.60;87.40
8338;DHT22;4206;48.634;9.516;2023-06-26T11:40:33;29.40;87.50
8338;DHT22;4206;48.634;9.516;2023-06-26T11:43:01;29.60;88.10
8338;DHT22;4206;48.634;9.516;2023-06-26T11:45:31;29.50;88.80
8338;DHT22;4206;48.634;9.516;2023-06-26T11:47:59;29.70;89.80
8338;DHT22;4206;48.634;9.516;2023-06-26T11:50:27;30.60;90.00
8338;DHT22;4206;48.634;9.516;2023-06-26T11:52:57;32.20;86.70
8338;DHT22;4206;48.634;9.516;2023-06-26T11:55:26;33.80;85.40
8338;DHT22;4206;48.634;9.516;2023-06-26T11:57:54;34.10;83.70
8338;DHT22;4206;48.634;9.516;2023-06-26T12:00:21;35.30;81.70
8338;DHT22;4206;48.634;9.516;2023-06-26T12:02:49;36.10;77.80
8338;DHT22;4206;48.634;9.516;2023-06-26T12:05:17;36.20;79.50
8338;DHT22;4206;48.634;9.516;2023-06-26T12:07:46;36.70;78.10
8338;DHT22;4206;48.634;9.516;2023-06-26T12:10:14;36.90;78.20
8338;DHT22;4206;48.634;9.516;2023-06-26T12:12:42;36.50;76.00
8338;DHT22;4206;48.634;9.516;2023-06-26T12:15:15;35.60;77.20
8338;DHT22;4206;48.634;9.516;2023-06-26T12:17:42;34.50;80.10
8338;DHT22;4206;48.634;9.516;2023-06-26T12:20:26;33.90;79.20
8338;DHT22;4206;48.634;9.516;2023-06-26T12:22:53;33.20;78.20
8338;DHT22;4206;48.634;9.516;2023-06-26T12:25:23;32.70;78.70
8338;DHT22;4206;48.634;9.516;2023-06-26T12:27:50;33.10;78.40
8338;DHT22;4206;48.634;9.516;2023-06-26T12:30:17;33.20;79.00
8338;DHT22;4206;48.634;9.516;2023-06-26T12:32:45;32.80;78.40
8338;DHT22;4206;48.634;9.516;2023-06-26T12:35:14;32.50;80.50
8338;DHT22;4206;48.634;9.516;2023-06-26T12:37:42;32.30;81.70
8338;DHT22;4206;48.634;9.516;2023-06-26T12:40:19;32.20;79.80
8338;DHT22;4206;48.634;9.516;2023-06-26T12:42:49;32.00;80.70
8338;DHT22;4206;48.634;9.516;2023-06-26T12:45:16;32.20;81.00
8338;DHT22;4206;48.634;9.516;2023-06-26T12:47:46;32.90;80.80
8338;DHT22;4206;48.634;9.516;2023-06-26T12:50:13;33.70;79.40
8338;DHT22;4206;48.634;9.516;2023-06-26T12:52:40;34.30;78.90
8338;DHT22;4206;48.634;9.516;2023-06-26T12:55:07;35.00;77.20
8338;DHT22;4206;48.634;9.516;2023-06-26T12:57:34;34.80;76.90
8338;DHT22;4206;48.634;9.516;2023-06-26T13:00:01;34.00;76.90
8338;DHT22;4206;48.634;9.516;2023-06-26T13:02:29;34.30;77.10
8338;DHT22;4206;48.634;9.516;2023-06-26T13:04:56;35.10;75.10
8338;DHT22;4206;48.634;9.516;2023-06-26T13:07:23;34.20;76.60
8338;DHT22;4206;48.634;9.516;2023-06-26T13:09:52;33.80;77.90
8338;DHT22;4206;48.634;9.516;2023-06-26T13:12:19;33.60;79.20
8338;DHT22;4206;48.634;9.516;2023-06-26T13:14:46;33.70;80.20
8338;DHT22;4206;48.634;9.516;2023-06-26T13:17:13;34.10;80.60
8338;DHT22;4206;48.634;9.516;2023-06-26T13:19:39;34.20;81.70
8338;DHT22;4206;48.634;9.516;2023-06-26T13:22:06;34.20;80.20
8338;DHT22;4206;48.634;9.516;2023-06-26T13:24:33;33.70;80.50
8338;DHT22;4206;48.634;9.516;2023-06-26T13:27:00;33.50;81.50
8338;DHT22;4206;48.634;9.516;2023-06-26T13:29:27;33.00;81.20
8338;DHT22;4206;48.634;9.516;2023-06-26T13:31:54;33.10;81.30
8338;DHT22;4206;48.634;9.516;2023-06-26T13:34:24;32.70;81.90
8338;DHT22;4206;48.634;9.516;2023-06-26T13:36:51;32.60;83.00
8338;DHT22;4206;48.634;9.516;2023-06-26T13:39:18;32.50;83.50
8338;DHT22;4206;48.634;9.516;2023-06-26T13:41:46;33.00;83.20
8338;DHT22;4206;48.634;9.516;2023-06-26T13:44:14;33.00;82.40
8338;DHT22;4206;48.634;9.516;2023-06-26T13:47:01;33.60;82.20
8338;DHT22;4206;48.634;9.516;2023-06-26T13:49:29;33.80;80.20
8338;DHT22;4206;48.634;9.516;2023-06-26T13:51:56;33.80;80.90
8338;DHT22;4206;48.634;9.516;2023-06-26T13:54:23;33.50;82.00
8338;DHT22;4206;48.634;9.516;2023-06-26T13:56:50;33.20;81.70
8338;DHT22;4206;48.634;9.516;2023-06-26T13:59:17;33.00;83.10
8338;DHT22;4206;48.634;9.516;2023-06-26T14:01:47;32.40;84.30
8338;DHT22;4206;48.634;9.516;2023-06-26T14:04:14;32.20;85.00
8338;DHT22;4206;48.634;9.516;2023-06-26T14:06:41;32.00;85.30
8338;DHT22;4206;48.634;9.516;2023-06-26T14:09:08;31.70;86.10
8338;DHT22;4206;48.634;9.516;2023-06-26T14:11:35;31.50;87.30
8338;DHT22;4206;48.634;9.516;2023-06-26T14:14:02;31.20;88.10
8338;DHT22;4206;48.634;9.516;2023-06-26T14:16:29;31.00;87.70
8338;DHT22;4206;48.634;9.516;2023-06-26T14:18:56;30.90;88.30
8338;DHT22;4206;48.634;9.516;2023-06-26T14:21:23;31.30;88.80
8338;DHT22;4206;48.634;9.516;2023-06-26T14:23:50;31.70;87.20
8338;DHT22;4206;48.634;9.516;2023-06-26T14:26:19;31.80;87.30
8338;DHT22;4206;48.634;9.516;2023-06-26T14:28:46;31.60;87.60
8338;DHT22;4206;48.634;9.516;2023-06-26T14:31:13;31.80;86.80
8338;DHT22;4206;48.634;9.516;2023-06-26T14:33:40;31.80;87.00
8338;DHT22;4206;48.634;9.516;2023-06-26T14:36:07;32.20;86.90
8338;DHT22;4206;48.634;9.516;2023-06-26T14:38:34;32.20;84.40
8338;DHT22;4206;48.634;9.516;2023-06-26T14:41:01;31.80;85.20
8338;DHT22;4206;48.634;9.516;2023-06-26T14:43:28;31.60;85.30
8338;DHT22;4206;48.634;9.516;2023-06-26T14:45:56;31.20;84.80
8338;DHT22;4206;48.634;9.516;2023-06-26T14:48:23;31.00;84.90
8338;DHT22;4206;48.634;9.516;2023-06-26T14:50:50;31.00;86.40
8338;DHT22;4206;48.634;9.516;2023-06-26T14:53:17;31.00;82.30
8338;DHT22;4206;48.634;9.516;2023-06-26T14:55:44;30.60;83.70
8338;DHT22;4206;48.634;9.516;2023-06-26T14:58:11;30.80;83.00
8338;DHT22;4206;48.634;9.516;2023-06-26T15:00:38;31.30;84.70
8338;DHT22;4206;48.634;9.516;2023-06-26T15:03:05;31.10;84.00
8338;DHT22;4206;48.634;9.516;2023-06-26T15:05:32;31.00;82.90
8338;DHT22;4206;48.634;9.516;2023-06-26T15:07:59;31.00;83.50
8338;DHT22;4206;48.634;9.516;2023-06-26T15:10:26;31.00;84.30
8338;DHT22;4206;48.634;9.516;2023-06-26T15:12:55;31.10;83.70
8338;DHT22;4206;48.634;9.516;2023-06-26T15:15:22;31.20;83.80
8338;DHT22;4206;48.634;9.516;2023-06-26T15:17:49;31.00;82.40
8338;DHT22;4206;48.634;9.516;2023-06-26T15:20:16;31.20;82.00
8338;DHT22;4206;48.634;9.516;2023-06-26T15:22:43;30.90;81.80
8338;DHT22;4206;48.634;9.516;2023-06-26T15:25:10;30.80;79.20
8338;DHT22;4206;48.634;9.516;2023-06-26T15:27:37;31.10;79.70
8338;DHT22;4206;48.634;9.516;2023-06-26T15:30:04;31.40;80.20
8338;DHT22;4206;48.634;9.516;2023-06-26T15:32:32;31.00;81.20
8338;DHT22;4206;48.634;9.516;2023-06-26T15:35:00;30.70;80.60
8338;DHT22;4206;48.634;9.516;2023-06-26T15:37:26;30.70;81.10
8338;DHT22;4206;48.634;9.516;2023-06-26T15:39:53;30.70;81.10
8338;DHT22;4206;48.634;9.516;2023-06-26T15:42:20;30.60;81.60
8338;DHT22;4206;48.634;9.516;2023-06-26T15:44:47;30.30;81.50
8338;DHT22;4206;48.634;9.516;2023-06-26T15:47:14;30.50;81.50
8338;DHT22;4206;48.634;9.516;2023-06-26T15:49:41;30.40;81.30
8338;DHT22;4206;48.634;9.516;2023-06-26T15:52:08;30.30;82.30
8338;DHT22;4206;48.634;9.516;2023-06-26T15:54:35;30.50;81.80
8338;DHT22;4206;48.634;9.516;2023-06-26T15:57:02;30.80;81.60
8338;DHT22;4206;48.634;9.516;2023-06-26T15:59:29;30.90;81.20
8338;DHT22;4206;48.634;9.516;2023-06-26T16:01:56;30.50;80.60
8338;DHT22;4206;48.634;9.516;2023-06-26T16:04:23;30.30;81.70
8338;DHT22;4206;48.634;9.516;2023-06-26T16:06:50;30.20;82.00
8338;DHT22;4206;48.634;9.516;2023-06-26T16:09:17;29.90;82.70
8338;DHT22;4206;48.634;9.516;2023-06-26T16:11:45;29.80;82.70
8338;DHT22;4206;48.634;9.516;2023-06-26T16:14:11;29.70;82.90
8338;DHT22;4206;48.634;9.516;2023-06-26T16:16:38;29.60;82.30